sensor_id;sensor_type;location;lat;lon;timestamp;temperature;humidity
5607;DHT22;2825;53.116;9.392;2022-09-09T00:01:55;14.90;99.90
5607;DHT22;2825;53.116;9.392;2022-09-09T00:04:36;14.90;99.90
5607;DHT22;2825;53.116;9.392;2022-09-09T00:07:21;14.90;99.90
5607;DHT22;2825;53.116;9.392;2022-09-09T00:16:04;14.70;99.90
5607;DHT22;2825;53.116;9.392;2022-09-09T00:21:35;14.60;99.90
5607;DHT22;2825;53.116;9.392;2022-09-09T00:24:08;14.60;99.90
5607;DHT22;2825;53.116;9.392;2022-09-09T00:26:48;14.60;99.90
5607;DHT22;2825;53.116;9.392;2022-09-09T00:29:46;14.60;99.90
5607;DHT22;2825;53.116;9.392;2022-09-09T00:32:18;14.60;99.90
5607;DHT22;2825;53.116;9.392;2022-09-09T00:35:02;14.60;99.90
5607;DHT22;2825;53.116;9.392;2022-09-09T00:37:29;14.50;99.90
5607;DHT22;2825;53.116;9.392;2022-09-09T00:40:00;14.50;99.90
5607;DHT22;2825;53.116;9.392;2022-09-09T00:42:43;14.50;99.90
5607;DHT22;2825;53.116;9.392;2022-09-09T00:47:52;14.40;99.90
5607;DHT22;2825;53.116;9.392;2022-09-09T00:56:00;14.40;99.90
5607;DHT22;2825;53.116;9.392;2022-09-09T00:58:30;14.40;99.90
5607;DHT22;2825;53.116;9.392;2022-09-09T01:01:13;14.40;99.90
5607;DHT22;2825;53.116;9.392;2022-09-09T01:16:59;14.40;99.90
5607;DHT22;2825;53.116;9.392;2022-09-09T01:22:36;14.40;99.90
5607;DHT22;2825;53.116;9.392;2022-09-09T01:28:22;14.40;99.90
5607;DHT22;2825;53.116;9.392;2022-09-09T01:30:50;14.40;99.90
5607;DHT22;2825;53.116;9.392;2022-09-09T01:33:17;14.40;99.90
5607;DHT22;2825;53.116;9.392;2022-09-09T01:38:19;14.40;99.90
5607;DHT22;2825;53.116;9.392;2022-09-09T01:40:46;14.30;99.90
5607;DHT22;2825;53.116;9.392;2022-09-09T01:43:11;14.30;99.90
5607;DHT22;2825;53.116;9.392;2022-09-09T01:45:39;14.30;99.90
5607;DHT22;2825;53.116;9.392;2022-09-09T01:48:06;14.30;99.90
5607;DHT22;2825;53.116;9.392;2022-09-09T01:50:32;14.20;99.90
5607;DHT22;2825;53.116;9.392;2022-09-09T01:52:59;14.20;99.90
5607;DHT22;2825;53.116;9.392;2022-09-09T01:55:36;14.20;99.90
5607;DHT22;2825;53.116;9.392;2022-09-09T02:03:49;14.10;99.90
5607;DHT22;2825;53.116;9.392;2022-09-09T02:06:34;14.10;99.90
5607;DHT22;2825;53.116;9.392;2022-09-09T02:09:03;14.20;99.90
5607;DHT22;2825;53.116;9.392;2022-09-09T02:11:30;14.10;99.90
5607;DHT22;2825;53.116;9.392;2022-09-09T02:14:10;14.10;99.90
5607;DHT22;2825;53.116;9.392;2022-09-09T02:16:53;14.10;99.90
5607;DHT22;2825;53.116;9.392;2022-09-09T02:19:27;14.10;99.90
5607;DHT22;2825;53.116;9.392;2022-09-09T02:21:58;14.10;99.90
5607;DHT22;2825;53.116;9.392;2022-09-09T02:24:25;14.10;99.90
5607;DHT22;2825;53.116;9.392;2022-09-09T02:26:54;14.00;99.90
5607;DHT22;2825;53.116;9.392;2022-09-09T02:29:26;14.00;99.90
5607;DHT22;2825;53.116;9.392;2022-09-09T02:31:53;14.00;99.90
5607;DHT22;2825;53.116;9.392;2022-09-09T02:34:23;14.00;99.90
5607;DHT22;2825;53.116;9.392;2022-09-09T02:36:52;14.00;99.90
5607;DHT22;2825;53.116;9.392;2022-09-09T02:39:19;14.00;99.90
5607;DHT22;2825;53.116;9.392;2022-09-09T02:41:44;14.00;99.90
5607;DHT22;2825;53.116;9.392;2022-09-09T02:44:15;13.90;99.90
5607;DHT22;2825;53.116;9.392;2022-09-09T02:50:12;13.80;99.90
5607;DHT22;2825;53.116;9.392;2022-09-09T02:52:42;13.80;99.90
5607;DHT22;2825;53.116;9.392;2022-09-09T02:55:20;13.80;99.90
5607;DHT22;2825;53.116;9.392;2022-09-09T02:57:49;13.80;99.90
5607;DHT22;2825;53.116;9.392;2022-09-09T03:00:15;13.80;99.90
5607;DHT22;2825;53.116;9.392;2022-09-09T03:02:41;13.80;99.90
5607;DHT22;2825;53.116;9.392;2022-09-09T03:05:07;13.80;99.90
5607;DHT22;2825;53.116;9.392;2022-09-09T03:07:33;13.80;99.90
5607;DHT22;2825;53.116;9.392;2022-09-09T03:09:59;13.70;99.90
5607;DHT22;2825;53.116;9.392;2022-09-09T03:12:24;13.70;99.90
5607;DHT22;2825;53.116;9.392;2022-09-09T03:14:50;13.70;99.90
5607;DHT22;2825;53.116;9.392;2022-09-09T03:17:16;13.60;99.90
5607;DHT22;2825;53.116;9.392;2022-09-09T03:19:42;13.60;99.90
5607;DHT22;2825;53.116;9.392;2022-09-09T03:22:09;13.60;99.90
5607;DHT22;2825;53.116;9.392;2022-09-09T03:24:35;13.60;99.90
5607;DHT22;2825;53.116;9.392;2022-09-09T03:27:01;13.60;99.90
5607;DHT22;2825;53.116;9.392;2022-09-09T03:29:26;13.60;99.90
5607;DHT22;2825;53.116;9.392;2022-09-09T03:31:52;13.50;99.90
5607;DHT22;2825;53.116;9.392;2022-09-09T03:34:18;13.50;99.90
5607;DHT22;2825;53.116;9.392;2022-09-09T03:36:43;13.50;99.90
5607;DHT22;2825;53.116;9.392;2022-09-09T03:39:09;13.50;99.90
5607;DHT22;2825;53.116;9.392;2022-09-09T03:41:36;13.50;99.90
5607;DHT22;2825;53.116;9.392;2022-09-09T03:44:03;13.50;99.90
5607;DHT22;2825;53.116;9.392;2022-09-09T03:46:28;13.40;99.90
5607;DHT22;2825;53.116;9.392;2022-09-09T03:48:54;13.40;99.90
5607;DHT22;2825;53.116;9.392;2022-09-09T03:51:20;13.40;99.90
5607;DHT22;2825;53.116;9.392;2022-09-09T03:53:48;13.40;99.90
5607;DHT22;2825;53.116;9.392;2022-09-09T03:56:14;13.40;99.90
5607;DHT22;2825;53.116;9.392;2022-09-09T03:58:40;13.40;99.90
5607;DHT22;2825;53.116;9.392;2022-09-09T04:01:09;13.50;99.90
5607;DHT22;2825;53.116;9.392;2022-09-09T04:03:35;13.50;99.90
5607;DHT22;2825;53.116;9.392;2022-09-09T04:06:02;13.50;99.90
5607;DHT22;2825;53.116;9.392;2022-09-09T04:08:29;13.50;99.90
5607;DHT22;2825;53.116;9.392;2022-09-09T04:10:59;13.50;99.90
5607;DHT22;2825;53.116;9.392;2022-09-09T04:13:28;13.60;99.90
5607;DHT22;2825;53.116;9.392;2022-09-09T04:15:55;13.60;99.90
5607;DHT22;2825;53.116;9.392;2022-09-09T04:18:21;13.60;99.90
5607;DHT22;2825;53.116;9.392;2022-09-09T04:20:48;13.60;99.90
5607;DHT22;2825;53.116;9.392;2022-09-09T04:23:14;13.70;99.90
5607;DHT22;2825;53.116;9.392;2022-09-09T04:25:45;13.70;99.90
5607;DHT22;2825;53.116;9.392;2022-09-09T04:28:12;13.70;99.90
5607;DHT22;2825;53.116;9.392;2022-09-09T04:30:38;13.70;99.90
5607;DHT22;2825;53.116;9.392;2022-09-09T04:33:05;13.70;99.90
5607;DHT22;2825;53.116;9.392;2022-09-09T04:35:32;13.70;99.90
5607;DHT22;2825;53.116;9.392;2022-09-09T04:37:58;13.70;99.90
5607;DHT22;2825;53.116;9.392;2022-09-09T04:40:24;13.80;99.90
5607;DHT22;2825;53.116;9.392;2022-09-09T04:42:50;13.80;99.90
5607;DHT22;2825;53.116;9.392;2022-09-09T04:45:17;13.80;99.90
5607;DHT22;2825;53.116;9.392;2022-09-09T04:47:43;13.80;99.90
5607;DHT22;2825;53.116;9.392;2022-09-09T04:50:09;13.80;99.90
5607;DHT22;2825;53.116;9.392;2022-09-09T04:52:35;13.80;99.90
5607;DHT22;2825;53.116;9.392;2022-09-09T04:55:02;13.80;99.90
5607;DHT22;2825;53.116;9.392;2022-09-09T04:57:27;13.80;99.90
5607;DHT22;2825;53.116;9.392;2022-09-09T04:59:54;13.90;99.90
5607;DHT22;2825;53.116;9.392;2022-09-09T05:02:20;13.90;99.90
5607;DHT22;2825;53.116;9.392;2022-09-09T05:04:45;13.90;99.90
5607;DHT22;2825;53.116;9.392;2022-09-09T05:07:11;13.90;99.90
5607;DHT22;2825;53.116;9.392;2022-09-09T05:09:36;14.00;99.90
5607;DHT22;2825;53.116;9.392;2022-09-09T05:12:02;14.00;99.90
5607;DHT22;2825;53.116;9.392;2022-09-09T05:14:28;14.00;99.90
5607;DHT22;2825;53.116;9.392;2022-09-09T05:16:55;14.00;99.90
5607;DHT22;2825;53.116;9.392;2022-09-09T05:19:21;14.00;99.90
5607;DHT22;2825;53.116;9.392;2022-09-09T05:21:47;14.00;99.90
5607;DHT22;2825;53.116;9.392;2022-09-09T05:24:13;14.00;99.90
5607;DHT22;2825;53.116;9.392;2022-09-09T05:26:39;14.00;99.90
5607;DHT22;2825;53.116;9.392;2022-09-09T05:29:05;14.10;99.90
5607;DHT22;2825;53.116;9.392;2022-09-09T05:31:31;14.10;99.90
5607;DHT22;2825;53.116;9.392;2022-09-09T05:33:58;14.10;99.90
5607;DHT22;2825;53.116;9.392;2022-09-09T05:36:24;14.10;99.90
5607;DHT22;2825;53.116;9.392;2022-09-09T05:38:50;14.20;99.90
5607;DHT22;2825;53.116;9.392;2022-09-09T05:41:17;14.20;99.90
5607;DHT22;2825;53.116;9.392;2022-09-09T05:43:43;14.20;99.90
5607;DHT22;2825;53.116;9.392;2022-09-09T05:46:20;14.20;99.90
5607;DHT22;2825;53.116;9.392;2022-09-09T05:48:47;14.30;99.90
5607;DHT22;2825;53.116;9.392;2022-09-09T05:51:19;14.30;99.90
5607;DHT22;2825;53.116;9.392;2022-09-09T05:53:46;14.30;99.90
5607;DHT22;2825;53.116;9.392;2022-09-09T05:56:17;14.30;99.90
5607;DHT22;2825;53.116;9.392;2022-09-09T05:58:44;14.40;99.90
5607;DHT22;2825;53.116;9.392;2022-09-09T06:01:11;14.40;99.90
5607;DHT22;2825;53.116;9.392;2022-09-09T06:03:39;14.40;99.90
5607;DHT22;2825;53.116;9.392;2022-09-09T06:06:16;14.40;99.90
5607;DHT22;2825;53.116;9.392;2022-09-09T06:08:44;14.40;99.90
5607;DHT22;2825;53.116;9.392;2022-09-09T06:11:20;14.40;99.90
5607;DHT22;2825;53.116;9.392;2022-09-09T06:13:47;14.40;99.90
5607;DHT22;2825;53.116;9.392;2022-09-09T06:16:16;14.50;99.90
5607;DHT22;2825;53.116;9.392;2022-09-09T06:18:42;14.50;99.90
5607;DHT22;2825;53.116;9.392;2022-09-09T06:21:16;14.50;99.90
5607;DHT22;2825;53.116;9.392;2022-09-09T06:23:42;14.50;99.90
5607;DHT22;2825;53.116;9.392;2022-09-09T06:28:38;14.50;99.90
5607;DHT22;2825;53.116;9.392;2022-09-09T06:31:08;14.50;99.90
5607;DHT22;2825;53.116;9.392;2022-09-09T06:33:36;14.50;99.90
5607;DHT22;2825;53.116;9.392;2022-09-09T06:36:05;14.50;99.90
5607;DHT22;2825;53.116;9.392;2022-09-09T06:38:31;14.60;99.90
5607;DHT22;2825;53.116;9.392;2022-09-09T06:40:58;14.60;99.90
5607;DHT22;2825;53.116;9.392;2022-09-09T06:43:27;14.60;99.90
5607;DHT22;2825;53.116;9.392;2022-09-09T06:46:06;14.60;99.90
5607;DHT22;2825;53.116;9.392;2022-09-09T06:48:33;14.70;99.90
5607;DHT22;2825;53.116;9.392;2022-09-09T06:51:19;14.70;99.90
5607;DHT22;2825;53.116;9.392;2022-09-09T06:53:47;14.70;99.90
5607;DHT22;2825;53.116;9.392;2022-09-09T06:58:50;14.70;99.90
5607;DHT22;2825;53.116;9.392;2022-09-09T07:01:19;14.70;99.90
5607;DHT22;2825;53.116;9.392;2022-09-09T07:03:49;14.70;99.90
5607;DHT22;2825;53.116;9.392;2022-09-09T07:06:21;14.80;99.90
5607;DHT22;2825;53.116;9.392;2022-09-09T07:08:51;14.80;99.90
5607;DHT22;2825;53.116;9.392;2022-09-09T07:11:18;14.80;99.90
5607;DHT22;2825;53.116;9.392;2022-09-09T07:13:44;14.80;99.90
5607;DHT22;2825;53.116;9.392;2022-09-09T07:16:12;14.80;99.90
5607;DHT22;2825;53.116;9.392;2022-09-09T07:18:39;14.80;99.90
5607;DHT22;2825;53.116;9.392;2022-09-09T07:21:05;14.90;99.90
5607;DHT22;2825;53.116;9.392;2022-09-09T07:23:32;14.90;99.90
5607;DHT22;2825;53.116;9.392;2022-09-09T07:25:58;14.90;99.90
5607;DHT22;2825;53.116;9.392;2022-09-09T07:28:25;15.00;99.90
5607;DHT22;2825;53.116;9.392;2022-09-09T07:31:01;15.00;99.90
5607;DHT22;2825;53.116;9.392;2022-09-09T07:33:32;15.00;99.90
5607;DHT22;2825;53.116;9.392;2022-09-09T07:36:08;15.10;99.90
5607;DHT22;2825;53.116;9.392;2022-09-09T07:38:42;15.10;99.90
5607;DHT22;2825;53.116;9.392;2022-09-09T07:41:10;15.20;99.90
5607;DHT22;2825;53.116;9.392;2022-09-09T07:43:40;15.20;99.90
5607;DHT22;2825;53.116;9.392;2022-09-09T07:46:06;15.20;99.90
5607;DHT22;2825;53.116;9.392;2022-09-09T07:48:33;15.30;99.90
5607;DHT22;2825;53.116;9.392;2022-09-09T07:51:08;15.40;99.90
5607;DHT22;2825;53.116;9.392;2022-09-09T07:53:34;15.50;99.90
5607;DHT22;2825;53.116;9.392;2022-09-09T07:56:10;15.60;99.90
5607;DHT22;2825;53.116;9.392;2022-09-09T07:58:37;15.70;99.90
5607;DHT22;2825;53.116;9.392;2022-09-09T08:01:18;15.80;99.90
5607;DHT22;2825;53.116;9.392;2022-09-09T08:03:45;15.90;99.90
5607;DHT22;2825;53.116;9.392;2022-09-09T08:06:12;16.10;99.90
5607;DHT22;2825;53.116;9.392;2022-09-09T08:08:40;16.20;99.90
5607;DHT22;2825;53.116;9.392;2022-09-09T08:11:10;16.20;99.90
5607;DHT22;2825;53.116;9.392;2022-09-09T08:13:38;16.30;99.90
5607;DHT22;2825;53.116;9.392;2022-09-09T08:16:27;16.30;99.90
5607;DHT22;2825;53.116;9.392;2022-09-09T08:18:53;16.40;99.90
5607;DHT22;2825;53.116;9.392;2022-09-09T08:21:31;16.60;99.90
5607;DHT22;2825;53.116;9.392;2022-09-09T08:23:59;16.70;99.90
5607;DHT22;2825;53.116;9.392;2022-09-09T08:26:28;16.90;99.90
5607;DHT22;2825;53.116;9.392;2022-09-09T08:28:56;17.20;99.90
5607;DHT22;2825;53.116;9.392;2022-09-09T08:31:33;17.30;99.90
5607;DHT22;2825;53.116;9.392;2022-09-09T08:34:00;17.60;99.90
5607;DHT22;2825;53.116;9.392;2022-09-09T08:36:28;17.80;99.90
5607;DHT22;2825;53.116;9.392;2022-09-09T08:38:56;18.00;99.90
5607;DHT22;2825;53.116;9.392;2022-09-09T08:52:13;18.90;99.90
5607;DHT22;2825;53.116;9.392;2022-09-09T08:54:41;19.00;99.90
5607;DHT22;2825;53.116;9.392;2022-09-09T08:57:14;19.00;99.90
5607;DHT22;2825;53.116;9.392;2022-09-09T08:59:43;18.90;99.90
5607;DHT22;2825;53.116;9.392;2022-09-09T09:02:21;18.90;99.90
5607;DHT22;2825;53.116;9.392;2022-09-09T09:08:01;18.90;99.90
5607;DHT22;2825;53.116;9.392;2022-09-09T09:18:54;18.90;99.90
5607;DHT22;2825;53.116;9.392;2022-09-09T09:24:01;19.00;99.90
5607;DHT22;2825;53.116;9.392;2022-09-09T09:26:33;19.00;99.90
5607;DHT22;2825;53.116;9.392;2022-09-09T09:29:03;19.00;99.90
5607;DHT22;2825;53.116;9.392;2022-09-09T09:31:33;19.20;99.90
5607;DHT22;2825;53.116;9.392;2022-09-09T09:33:59;19.40;99.90
5607;DHT22;2825;53.116;9.392;2022-09-09T09:36:40;19.30;99.90
5607;DHT22;2825;53.116;9.392;2022-09-09T09:39:07;19.40;99.90
5607;DHT22;2825;53.116;9.392;2022-09-09T09:41:42;19.50;99.90
5607;DHT22;2825;53.116;9.392;2022-09-09T09:44:31;19.50;99.90
5607;DHT22;2825;53.116;9.392;2022-09-09T09:47:13;19.70;99.90
5607;DHT22;2825;53.116;9.392;2022-09-09T09:49:51;19.80;99.90
5607;DHT22;2825;53.116;9.392;2022-09-09T09:52:23;20.00;99.90
5607;DHT22;2825;53.116;9.392;2022-09-09T09:54:50;20.10;99.90
5607;DHT22;2825;53.116;9.392;2022-09-09T09:57:18;20.30;99.90
5607;DHT22;2825;53.116;9.392;2022-09-09T09:59:48;20.40;99.90
5607;DHT22;2825;53.116;9.392;2022-09-09T10:02:17;20.30;99.90
5607;DHT22;2825;53.116;9.392;2022-09-09T10:04:43;20.30;99.90
5607;DHT22;2825;53.116;9.392;2022-09-09T10:07:18;20.40;99.90
5607;DHT22;2825;53.116;9.392;2022-09-09T10:09:44;20.30;99.90
5607;DHT22;2825;53.116;9.392;2022-09-09T10:15:01;20.10;99.90
5607;DHT22;2825;53.116;9.392;2022-09-09T10:22:51;20.20;99.90
5607;DHT22;2825;53.116;9.392;2022-09-09T10:28:36;20.30;99.90
5607;DHT22;2825;53.116;9.392;2022-09-09T10:31:22;20.50;99.90
5607;DHT22;2825;53.116;9.392;2022-09-09T10:36:28;20.60;99.90
5607;DHT22;2825;53.116;9.392;2022-09-09T10:39:10;20.50;99.90
5607;DHT22;2825;53.116;9.392;2022-09-09T10:55:42;20.20;99.90
5607;DHT22;2825;53.116;9.392;2022-09-09T10:58:14;20.20;99.90
5607;DHT22;2825;53.116;9.392;2022-09-09T11:00:53;20.10;99.90
5607;DHT22;2825;53.116;9.392;2022-09-09T11:03:25;20.00;99.90
5607;DHT22;2825;53.116;9.392;2022-09-09T11:06:11;19.80;99.90
5607;DHT22;2825;53.116;9.392;2022-09-09T11:08:39;19.70;99.90
5607;DHT22;2825;53.116;9.392;2022-09-09T11:18:47;19.50;99.90
5607;DHT22;2825;53.116;9.392;2022-09-09T11:21:34;19.50;99.90
5607;DHT22;2825;53.116;9.392;2022-09-09T11:24:08;19.40;99.90
5607;DHT22;2825;53.116;9.392;2022-09-09T11:26:45;19.30;99.90
5607;DHT22;2825;53.116;9.392;2022-09-09T11:40:19;18.90;99.90
5607;DHT22;2825;53.116;9.392;2022-09-09T11:42:46;18.70;99.90
5607;DHT22;2825;53.116;9.392;2022-09-09T11:45:24;18.70;99.90
5607;DHT22;2825;53.116;9.392;2022-09-09T11:47:58;18.70;99.90
5607;DHT22;2825;53.116;9.392;2022-09-09T11:52:50;18.70;99.90
5607;DHT22;2825;53.116;9.392;2022-09-09T11:55:33;18.70;99.90
5607;DHT22;2825;53.116;9.392;2022-09-09T11:58:03;18.60;99.90
5607;DHT22;2825;53.116;9.392;2022-09-09T12:00:36;18.60;99.90
5607;DHT22;2825;53.116;9.392;2022-09-09T12:03:04;18.60;99.90
5607;DHT22;2825;53.116;9.392;2022-09-09T12:05:40;18.60;99.90
5607;DHT22;2825;53.116;9.392;2022-09-09T12:08:09;18.60;99.90
5607;DHT22;2825;53.116;9.392;2022-09-09T12:10:39;18.50;99.90
5607;DHT22;2825;53.116;9.392;2022-09-09T12:13:20;18.50;99.90
5607;DHT22;2825;53.116;9.392;2022-09-09T12:15:58;18.50;99.90
5607;DHT22;2825;53.116;9.392;2022-09-09T12:18:35;18.40;99.90
5607;DHT22;2825;53.116;9.392;2022-09-09T12:21:31;18.40;99.90
5607;DHT22;2825;53.116;9.392;2022-09-09T12:24:06;18.40;99.90
5607;DHT22;2825;53.116;9.392;2022-09-09T12:36:58;18.30;99.90
5607;DHT22;2825;53.116;9.392;2022-09-09T12:41:57;18.30;99.90
5607;DHT22;2825;53.116;9.392;2022-09-09T12:44:24;18.30;99.90
5607;DHT22;2825;53.116;9.392;2022-09-09T12:46:51;18.20;99.90
5607;DHT22;2825;53.116;9.392;2022-09-09T12:49:37;18.20;99.90
5607;DHT22;2825;53.116;9.392;2022-09-09T12:52:08;18.10;99.90
5607;DHT22;2825;53.116;9.392;2022-09-09T12:54:44;17.90;99.90
5607;DHT22;2825;53.116;9.392;2022-09-09T12:57:12;17.80;99.90
5607;DHT22;2825;53.116;9.392;2022-09-09T12:59:41;17.50;99.90
5607;DHT22;2825;53.116;9.392;2022-09-09T13:02:23;17.40;99.90
5607;DHT22;2825;53.116;9.392;2022-09-09T13:04:50;17.30;99.90
5607;DHT22;2825;53.116;9.392;2022-09-09T13:07:18;17.20;99.90
5607;DHT22;2825;53.116;9.392;2022-09-09T13:09:45;17.10;99.90
5607;DHT22;2825;53.116;9.392;2022-09-09T13:12:21;17.00;99.90
5607;DHT22;2825;53.116;9.392;2022-09-09T13:14:51;16.80;99.90
5607;DHT22;2825;53.116;9.392;2022-09-09T13:17:24;16.70;99.90
5607;DHT22;2825;53.116;9.392;2022-09-09T13:19:51;16.70;99.90
5607;DHT22;2825;53.116;9.392;2022-09-09T13:22:36;16.70;99.90
5607;DHT22;2825;53.116;9.392;2022-09-09T13:25:18;16.70;99.90
5607;DHT22;2825;53.116;9.392;2022-09-09T13:27:57;16.70;99.90
5607;DHT22;2825;53.116;9.392;2022-09-09T13:30:35;16.70;99.90
5607;DHT22;2825;53.116;9.392;2022-09-09T13:36:02;16.70;99.90
5607;DHT22;2825;53.116;9.392;2022-09-09T13:38:32;16.80;99.90
5607;DHT22;2825;53.116;9.392;2022-09-09T13:43:31;16.80;99.90
5607;DHT22;2825;53.116;9.392;2022-09-09T13:46:02;16.80;99.90
5607;DHT22;2825;53.116;9.392;2022-09-09T13:48:28;16.90;99.90
5607;DHT22;2825;53.116;9.392;2022-09-09T13:51:01;17.00;99.90
5607;DHT22;2825;53.116;9.392;2022-09-09T13:53:27;17.10;99.90
5607;DHT22;2825;53.116;9.392;2022-09-09T13:55:53;17.20;99.90
5607;DHT22;2825;53.116;9.392;2022-09-09T13:58:19;17.30;99.90
5607;DHT22;2825;53.116;9.392;2022-09-09T14:00:45;17.40;99.90
5607;DHT22;2825;53.116;9.392;2022-09-09T14:03:11;17.50;99.90
5607;DHT22;2825;53.116;9.392;2022-09-09T14:05:37;17.60;99.90
5607;DHT22;2825;53.116;9.392;2022-09-09T14:08:07;17.80;99.90
5607;DHT22;2825;53.116;9.392;2022-09-09T14:10:36;18.00;99.90
5607;DHT22;2825;53.116;9.392;2022-09-09T14:13:03;18.10;99.90
5607;DHT22;2825;53.116;9.392;2022-09-09T14:15:28;18.30;99.90
5607;DHT22;2825;53.116;9.392;2022-09-09T14:17:55;18.40;99.90
5607;DHT22;2825;53.116;9.392;2022-09-09T14:20:20;18.50;99.90
5607;DHT22;2825;53.116;9.392;2022-09-09T14:22:46;18.70;99.90
5607;DHT22;2825;53.116;9.392;2022-09-09T14:25:12;18.70;99.90
5607;DHT22;2825;53.116;9.392;2022-09-09T14:27:41;18.80;99.90
5607;DHT22;2825;53.116;9.392;2022-09-09T14:30:08;18.90;99.90
5607;DHT22;2825;53.116;9.392;2022-09-09T14:32:35;18.90;99.90
5607;DHT22;2825;53.116;9.392;2022-09-09T14:35:00;18.80;99.90
5607;DHT22;2825;53.116;9.392;2022-09-09T14:37:27;18.80;99.90
5607;DHT22;2825;53.116;9.392;2022-09-09T14:39:52;18.80;99.90
5607;DHT22;2825;53.116;9.392;2022-09-09T14:42:19;18.80;99.90
5607;DHT22;2825;53.116;9.392;2022-09-09T14:44:45;18.80;99.90
5607;DHT22;2825;53.116;9.392;2022-09-09T14:47:10;18.80;99.90
5607;DHT22;2825;53.116;9.392;2022-09-09T14:49:36;18.90;99.90
5607;DHT22;2825;53.116;9.392;2022-09-09T14:52:03;19.00;99.90
5607;DHT22;2825;53.116;9.392;2022-09-09T14:54:30;19.00;99.90
5607;DHT22;2825;53.116;9.392;2022-09-09T14:56:56;19.00;99.90
5607;DHT22;2825;53.116;9.392;2022-09-09T14:59:22;19.10;99.90
5607;DHT22;2825;53.116;9.392;2022-09-09T15:01:47;19.00;99.90
5607;DHT22;2825;53.116;9.392;2022-09-09T15:04:14;19.00;99.90
5607;DHT22;2825;53.116;9.392;2022-09-09T15:06:43;19.00;99.90
5607;DHT22;2825;53.116;9.392;2022-09-09T15:09:12;19.00;99.90
5607;DHT22;2825;53.116;9.392;2022-09-09T15:11:38;18.90;99.90
5607;DHT22;2825;53.116;9.392;2022-09-09T15:14:05;18.90;99.90
5607;DHT22;2825;53.116;9.392;2022-09-09T15:16:31;18.90;99.90
5607;DHT22;2825;53.116;9.392;2022-09-09T15:18:58;18.80;99.90
5607;DHT22;2825;53.116;9.392;2022-09-09T15:21:26;18.80;99.90
5607;DHT22;2825;53.116;9.392;2022-09-09T15:23:52;18.80;99.90
5607;DHT22;2825;53.116;9.392;2022-09-09T15:26:19;18.80;99.90
5607;DHT22;2825;53.116;9.392;2022-09-09T15:28:46;18.80;99.90
5607;DHT22;2825;53.116;9.392;2022-09-09T15:31:21;18.70;99.90
5607;DHT22;2825;53.116;9.392;2022-09-09T15:33:56;18.70;99.90
5607;DHT22;2825;53.116;9.392;2022-09-09T15:37:00;18.60;99.90
5607;DHT22;2825;53.116;9.392;2022-09-09T15:39:20;18.50;99.90
5607;DHT22;2825;53.116;9.392;2022-09-09T15:41:47;18.50;99.90
5607;DHT22;2825;53.116;9.392;2022-09-09T15:44:14;18.50;99.90
5607;DHT22;2825;53.116;9.392;2022-09-09T15:46:46;18.50;99.90
5607;DHT22;2825;53.116;9.392;2022-09-09T15:49:25;18.40;99.90
5607;DHT22;2825;53.116;9.392;2022-09-09T15:51:56;18.30;99.90
5607;DHT22;2825;53.116;9.392;2022-09-09T15:54:23;18.30;99.90
5607;DHT22;2825;53.116;9.392;2022-09-09T15:56:55;18.30;99.90
5607;DHT22;2825;53.116;9.392;2022-09-09T15:59:25;18.20;99.90
5607;DHT22;2825;53.116;9.392;2022-09-09T16:01:53;18.10;99.90
5607;DHT22;2825;53.116;9.392;2022-09-09T16:04:20;18.10;99.90
5607;DHT22;2825;53.116;9.392;2022-09-09T16:06:50;18.00;99.90
5607;DHT22;2825;53.116;9.392;2022-09-09T16:09:16;18.00;99.90
5607;DHT22;2825;53.116;9.392;2022-09-09T16:11:42;17.90;99.90
5607;DHT22;2825;53.116;9.392;2022-09-09T16:14:07;17.80;99.90
5607;DHT22;2825;53.116;9.392;2022-09-09T16:16:34;17.70;99.90
5607;DHT22;2825;53.116;9.392;2022-09-09T16:19:04;17.70;99.90
5607;DHT22;2825;53.116;9.392;2022-09-09T16:21:33;17.60;99.90
5607;DHT22;2825;53.116;9.392;2022-09-09T16:24:01;17.60;99.90
5607;DHT22;2825;53.116;9.392;2022-09-09T16:26:29;17.50;99.90
5607;DHT22;2825;53.116;9.392;2022-09-09T16:28:55;17.50;99.90
5607;DHT22;2825;53.116;9.392;2022-09-09T16:31:25;17.40;99.90
5607;DHT22;2825;53.116;9.392;2022-09-09T16:33:51;17.40;99.90
5607;DHT22;2825;53.116;9.392;2022-09-09T16:36:22;17.30;99.90
5607;DHT22;2825;53.116;9.392;2022-09-09T16:38:51;17.30;99.90
5607;DHT22;2825;53.116;9.392;2022-09-09T16:41:17;17.20;99.90
5607;DHT22;2825;53.116;9.392;2022-09-09T16:43:43;17.20;99.90
5607;DHT22;2825;53.116;9.392;2022-09-09T16:46:17;17.10;99.90
5607;DHT22;2825;53.116;9.392;2022-09-09T16:48:44;17.10;99.90
5607;DHT22;2825;53.116;9.392;2022-09-09T16:51:21;17.10;99.90
5607;DHT22;2825;53.116;9.392;2022-09-09T16:53:49;17.00;99.90
5607;DHT22;2825;53.116;9.392;2022-09-09T16:56:17;17.00;99.90
5607;DHT22;2825;53.116;9.392;2022-09-09T16:58:48;17.00;99.90
5607;DHT22;2825;53.116;9.392;2022-09-09T17:01:14;17.00;99.90
5607;DHT22;2825;53.116;9.392;2022-09-09T17:03:40;17.00;99.90
5607;DHT22;2825;53.116;9.392;2022-09-09T17:06:10;17.00;99.90
5607;DHT22;2825;53.116;9.392;2022-09-09T17:08:37;16.90;99.90
5607;DHT22;2825;53.116;9.392;2022-09-09T17:11:14;16.90;99.90
5607;DHT22;2825;53.116;9.392;2022-09-09T17:13:43;16.90;99.90
5607;DHT22;2825;53.116;9.392;2022-09-09T17:16:09;16.90;99.90
5607;DHT22;2825;53.116;9.392;2022-09-09T17:18:36;16.90;99.90
5607;DHT22;2825;53.116;9.392;2022-09-09T17:21:06;16.90;99.90
5607;DHT22;2825;53.116;9.392;2022-09-09T17:23:34;16.90;99.90
5607;DHT22;2825;53.116;9.392;2022-09-09T17:26:07;16.90;99.90
5607;DHT22;2825;53.116;9.392;2022-09-09T17:28:34;17.00;99.90
5607;DHT22;2825;53.116;9.392;2022-09-09T17:31:00;17.00;99.90
5607;DHT22;2825;53.116;9.392;2022-09-09T17:33:30;17.00;99.90
5607;DHT22;2825;53.116;9.392;2022-09-09T17:36:23;17.00;99.90
5607;DHT22;2825;53.116;9.392;2022-09-09T17:38:50;17.00;99.90
5607;DHT22;2825;53.116;9.392;2022-09-09T17:41:18;17.00;99.90
5607;DHT22;2825;53.116;9.392;2022-09-09T17:43:44;17.00;99.90
5607;DHT22;2825;53.116;9.392;2022-09-09T17:46:21;17.00;99.90
5607;DHT22;2825;53.116;9.392;2022-09-09T17:48:48;17.00;99.90
5607;DHT22;2825;53.116;9.392;2022-09-09T17:51:17;17.00;99.90
5607;DHT22;2825;53.116;9.392;2022-09-09T17:53:47;17.00;99.90
5607;DHT22;2825;53.116;9.392;2022-09-09T17:56:16;17.00;99.90
5607;DHT22;2825;53.116;9.392;2022-09-09T17:58:42;17.00;99.90
5607;DHT22;2825;53.116;9.392;2022-09-09T18:01:14;17.00;99.90
5607;DHT22;2825;53.116;9.392;2022-09-09T18:03:41;16.90;99.90
5607;DHT22;2825;53.116;9.392;2022-09-09T18:06:14;16.90;99.90
5607;DHT22;2825;53.116;9.392;2022-09-09T18:08:41;16.90;99.90
5607;DHT22;2825;53.116;9.392;2022-09-09T18:11:07;16.90;99.90
5607;DHT22;2825;53.116;9.392;2022-09-09T18:13:33;16.80;99.90
5607;DHT22;2825;53.116;9.392;2022-09-09T18:16:00;16.80;99.90
5607;DHT22;2825;53.116;9.392;2022-09-09T18:18:26;16.70;99.90
5607;DHT22;2825;53.116;9.392;2022-09-09T18:21:07;16.60;99.90
5607;DHT22;2825;53.116;9.392;2022-09-09T18:23:37;16.50;99.90
5607;DHT22;2825;53.116;9.392;2022-09-09T18:26:10;16.50;99.90
5607;DHT22;2825;53.116;9.392;2022-09-09T18:28:40;16.50;99.90
5607;DHT22;2825;53.116;9.392;2022-09-09T18:31:12;16.50;99.90
5607;DHT22;2825;53.116;9.392;2022-09-09T18:33:40;16.60;99.90
5607;DHT22;2825;53.116;9.392;2022-09-09T18:36:17;16.60;99.90
5607;DHT22;2825;53.116;9.392;2022-09-09T18:38:44;16.60;99.90
5607;DHT22;2825;53.116;9.392;2022-09-09T18:41:18;16.60;99.90
5607;DHT22;2825;53.116;9.392;2022-09-09T18:43:47;16.60;99.90
5607;DHT22;2825;53.116;9.392;2022-09-09T18:46:14;16.50;99.90